createdAt,value
2023-01-13T00:01:17.334Z,3.87
2023-01-13T00:03:45.457Z,3.80
2023-01-13T00:06:19.227Z,4.33
2023-01-13T00:08:49.014Z,3.90
2023-01-13T00:11:15.519Z,3.20
2023-01-13T00:13:42.372Z,3.83
2023-01-13T00:16:12.563Z,3.50
2023-01-13T00:18:39.211Z,4.70
2023-01-13T00:21:08.725Z,3.60
2023-01-13T00:23:36.364Z,4.00
2023-01-13T00:26:08.353Z,3.50
2023-01-13T00:28:37.342Z,3.77
2023-01-13T00:31:08.481Z,3.60
2023-01-13T00:33:35.689Z,4.50
2023-01-13T00:36:03.381Z,3.57
2023-01-13T00:38:31.254Z,3.73
2023-01-13T00:41:09.846Z,3.47
2023-01-13T00:43:37.736Z,3.57
2023-01-13T00:46:07.388Z,3.70
2023-01-13T00:48:34.580Z,3.53
2023-01-13T00:51:06.340Z,3.67
2023-01-13T00:53:34.952Z,4.00
2023-01-13T00:56:01.973Z,3.37
2023-01-13T00:58:31.247Z,4.40
2023-01-13T01:01:13.343Z,3.63
2023-01-13T01:03:44.964Z,4.00
2023-01-13T01:06:17.137Z,4.33
2023-01-13T01:08:46.574Z,3.63
2023-01-13T01:11:18.950Z,4.00
2023-01-13T01:13:47.182Z,3.33
2023-01-13T01:16:17.214Z,3.93
2023-01-13T01:18:45.422Z,3.90
2023-01-13T01:21:12.755Z,4.27
2023-01-13T01:23:39.849Z,3.47
2023-01-13T01:26:24.585Z,3.83
2023-01-13T01:28:53.047Z,3.63
2023-01-13T01:31:23.497Z,3.10
2023-01-13T01:33:50.326Z,4.20
2023-01-13T01:36:19.342Z,3.70
2023-01-13T01:38:49.594Z,3.60
2023-01-13T01:41:23.126Z,3.70
2023-01-13T01:44:06.829Z,4.10
2023-01-13T01:46:42.083Z,4.27
2023-01-13T01:49:19.921Z,3.17
2023-01-13T01:51:56.931Z,3.60
2023-01-13T01:54:35.064Z,4.00
2023-01-13T01:57:01.628Z,3.80
2023-01-13T01:59:28.927Z,3.97
2023-01-13T02:01:55.939Z,3.60
2023-01-13T02:04:26.138Z,4.00
2023-01-13T02:06:54.160Z,3.13
2023-01-13T02:09:20.705Z,3.73
2023-01-13T02:12:05.794Z,3.80
2023-01-13T02:14:33.511Z,3.50
2023-01-13T02:17:24.863Z,4.30
2023-01-13T02:20:34.276Z,4.17
2023-01-13T02:23:37.621Z,3.33
2023-01-13T02:26:41.343Z,3.43
2023-01-13T02:30:03.791Z,3.50
2023-01-13T02:32:35.954Z,3.67
2023-01-13T02:35:27.614Z,4.43
2023-01-13T02:37:55.027Z,3.20
2023-01-13T02:40:33.417Z,3.37
2023-01-13T02:43:27.539Z,3.67
2023-01-13T02:46:01.603Z,3.70
2023-01-13T02:48:29.908Z,4.20
2023-01-13T02:51:21.997Z,4.27
2023-01-13T02:53:53.919Z,3.57
2023-01-13T02:56:21.361Z,3.80
2023-01-13T02:58:48.635Z,4.43
2023-01-13T03:01:15.208Z,5.40
2023-01-13T03:03:42.150Z,3.50
2023-01-13T03:06:19.260Z,3.20
2023-01-13T03:09:21.333Z,3.40
2023-01-13T03:12:15.988Z,3.97
2023-01-13T03:14:50.247Z,4.10
2023-01-13T03:17:40.075Z,3.73
2023-01-13T03:20:18.974Z,3.13
2023-01-13T03:22:58.625Z,3.33
2023-01-13T03:25:52.165Z,3.90
2023-01-13T03:28:29.065Z,4.37
2023-01-13T03:31:01.430Z,4.00
2023-01-13T03:33:45.571Z,3.37
2023-01-13T03:36:14.416Z,3.50
2023-01-13T03:38:44.059Z,3.20
2023-01-13T03:41:46.582Z,3.70
2023-01-13T03:44:32.961Z,2.93
2023-01-13T03:47:12.224Z,3.23
2023-01-13T03:49:58.881Z,3.83
2023-01-13T03:52:29.132Z,4.03
2023-01-13T03:54:59.655Z,3.40
2023-01-13T03:57:30.540Z,3.30
2023-01-13T03:59:59.388Z,3.30
2023-01-13T04:02:35.041Z,4.20
2023-01-13T04:05:03.959Z,3.40
2023-01-13T04:08:07.600Z,3.13
2023-01-13T04:10:46.055Z,3.27
2023-01-13T04:13:14.843Z,2.83
2023-01-13T04:15:44.537Z,3.13
2023-01-13T04:18:22.108Z,4.03
2023-01-13T04:20:50.928Z,3.80
2023-01-13T04:23:18.212Z,3.20
2023-01-13T04:25:45.382Z,3.20
2023-01-13T04:28:12.630Z,3.90
2023-01-13T04:30:39.531Z,3.20
2023-01-13T04:33:06.521Z,3.13
2023-01-13T04:35:34.350Z,3.40
2023-01-13T04:38:06.811Z,3.40
2023-01-13T04:40:33.491Z,2.80
2023-01-13T04:43:00.032Z,2.67
2023-01-13T04:45:26.699Z,3.77
2023-01-13T04:47:54.046Z,3.50
2023-01-13T04:50:21.280Z,3.10
2023-01-13T04:52:52.665Z,3.70
2023-01-13T04:55:28.333Z,3.90
2023-01-13T04:57:55.128Z,3.10
2023-01-13T05:00:23.752Z,3.70
2023-01-13T05:02:52.388Z,2.60
2023-01-13T05:05:19.288Z,3.80
2023-01-13T05:07:45.988Z,2.87
2023-01-13T05:10:14.753Z,3.67
2023-01-13T05:13:00.122Z,3.20
2023-01-13T05:15:45.336Z,2.90
2023-01-13T05:18:12.413Z,3.27
2023-01-13T05:20:39.132Z,2.63
2023-01-13T05:23:24.405Z,2.80
2023-01-13T05:25:51.095Z,2.60
2023-01-13T05:28:17.748Z,2.80
2023-01-13T05:30:46.236Z,2.87
2023-01-13T05:33:15.768Z,2.80
2023-01-13T05:35:45.168Z,3.00
2023-01-13T05:38:12.752Z,2.60
2023-01-13T05:41:00.306Z,3.00
2023-01-13T05:43:27.497Z,3.33
2023-01-13T05:46:01.352Z,3.17
2023-01-13T05:48:32.622Z,2.90
2023-01-13T05:51:00.899Z,3.00
2023-01-13T05:53:29.373Z,4.00
2023-01-13T05:55:58.535Z,3.20
2023-01-13T05:58:26.820Z,3.00
2023-01-13T06:01:01.841Z,3.20
2023-01-13T06:03:29.520Z,3.23
2023-01-13T06:05:59.389Z,2.70
2023-01-13T06:08:25.976Z,3.23
2023-01-13T06:10:52.599Z,3.50
2023-01-13T06:13:19.190Z,3.53
2023-01-13T06:15:45.750Z,3.87
2023-01-13T06:18:12.410Z,3.50
2023-01-13T06:20:38.923Z,3.60
2023-01-13T06:23:09.276Z,3.00
2023-01-13T06:25:50.264Z,3.00
2023-01-13T06:28:16.973Z,2.97
2023-01-13T06:30:47.373Z,2.93
2023-01-13T06:33:19.580Z,3.20
2023-01-13T06:35:51.422Z,3.17
2023-01-13T06:38:22.030Z,4.07
2023-01-13T06:40:48.630Z,2.97
2023-01-13T06:43:17.307Z,3.97
2023-01-13T06:45:50.892Z,3.03
2023-01-13T06:48:19.372Z,3.07
2023-01-13T06:50:46.174Z,2.70
2023-01-13T06:53:13.799Z,3.07
2023-01-13T06:55:41.721Z,3.70
2023-01-13T06:58:08.411Z,2.97
2023-01-13T07:00:37.874Z,3.10
2023-01-13T07:03:12.517Z,3.60
2023-01-13T07:05:39.638Z,3.10
2023-01-13T07:08:06.832Z,3.03
2023-01-13T07:10:35.557Z,3.83
2023-01-13T07:13:22.793Z,3.03
2023-01-13T07:15:56.721Z,2.97
2023-01-13T07:18:23.255Z,3.70
2023-01-13T07:21:00.559Z,3.17
2023-01-13T07:23:28.767Z,3.33
2023-01-13T07:25:56.891Z,3.57
2023-01-13T07:28:24.686Z,3.77
2023-01-13T07:30:55.542Z,3.60
2023-01-13T07:33:23.944Z,2.93
2023-01-13T07:36:06.629Z,4.40
2023-01-13T07:38:36.390Z,3.10
2023-01-13T07:41:24.987Z,4.00
2023-01-13T07:43:52.379Z,3.33
2023-01-13T07:46:20.235Z,2.80
2023-01-13T07:48:48.150Z,2.83
2023-01-13T07:51:14.961Z,2.87
2023-01-13T07:53:41.757Z,2.40
2023-01-13T07:56:08.833Z,2.40
2023-01-13T07:58:36.869Z,2.90
2023-01-13T08:01:14.135Z,3.33
2023-01-13T08:03:41.071Z,3.10
2023-01-13T08:06:07.833Z,2.97
2023-01-13T08:08:34.538Z,2.53
2023-01-13T08:11:02.210Z,3.60
2023-01-13T08:13:28.682Z,3.73
2023-01-13T08:16:01.553Z,3.37
2023-01-13T08:18:28.479Z,2.83
2023-01-13T08:20:55.061Z,3.20
2023-01-13T08:23:22.794Z,3.63
2023-01-13T08:25:50.138Z,3.40
2023-01-13T08:28:17.582Z,2.37
2023-01-13T08:30:44.432Z,2.90
2023-01-13T08:33:12.797Z,2.70
2023-01-13T08:35:40.798Z,3.30
2023-01-13T08:38:09.219Z,3.20
2023-01-13T08:40:36.263Z,4.13
2023-01-13T08:43:02.970Z,3.53
2023-01-13T08:45:29.908Z,4.43
2023-01-13T08:47:56.561Z,3.37
2023-01-13T08:50:23.172Z,2.70
2023-01-13T08:52:50.134Z,2.67
2023-01-13T08:55:16.697Z,3.00
2023-01-13T08:57:44.629Z,3.97
2023-01-13T09:00:14.709Z,2.37
2023-01-13T09:02:41.352Z,3.07
2023-01-13T09:05:09.123Z,3.00
2023-01-13T09:07:37.693Z,2.80
2023-01-13T09:10:06.633Z,3.50
2023-01-13T09:12:53.059Z,3.40
2023-01-13T09:15:22.529Z,3.20
2023-01-13T09:17:50.337Z,3.00
2023-01-13T09:20:17.159Z,2.80
2023-01-13T09:22:44.050Z,2.30
2023-01-13T09:25:13.293Z,2.73
2023-01-13T09:27:41.797Z,2.87
2023-01-13T09:30:08.994Z,2.53
2023-01-13T09:32:38.537Z,3.53
2023-01-13T09:35:07.010Z,3.67
2023-01-13T09:37:36.672Z,3.87
2023-01-13T09:40:06.169Z,3.77
2023-01-13T09:43:15.270Z,3.40
2023-01-13T09:45:47.352Z,3.37
2023-01-13T09:48:52.266Z,3.20
2023-01-13T09:51:31.914Z,2.83
2023-01-13T09:54:32.449Z,2.97
2023-01-13T09:57:03.891Z,3.20
2023-01-13T09:59:36.518Z,3.87
2023-01-13T10:02:19.221Z,4.10
2023-01-13T10:05:03.433Z,2.80
2023-01-13T10:07:32.020Z,3.50
2023-01-13T10:10:02.156Z,3.43
2023-01-13T10:12:48.206Z,3.23
2023-01-13T10:15:20.366Z,2.93
2023-01-13T10:17:58.628Z,2.87
2023-01-13T10:20:46.826Z,3.07
2023-01-13T10:23:36.120Z,3.33
2023-01-13T10:26:27.133Z,3.13
2023-01-13T10:28:58.570Z,2.70
2023-01-13T10:31:28.500Z,3.20
2023-01-13T10:34:01.406Z,2.90
2023-01-13T10:36:28.109Z,3.63
2023-01-13T10:39:07.235Z,3.30
2023-01-13T10:41:36.263Z,2.77
2023-01-13T10:44:09.407Z,3.00
2023-01-13T10:46:51.605Z,2.87
2023-01-13T10:49:36.666Z,3.20
2023-01-13T10:52:26.594Z,3.03
2023-01-13T10:54:56.703Z,4.47
2023-01-13T10:57:25.478Z,2.60
2023-01-13T10:59:53.415Z,3.47
2023-01-13T11:02:29.374Z,3.70
2023-01-13T11:04:56.441Z,3.57
2023-01-13T11:07:39.709Z,3.73
2023-01-13T11:10:09.220Z,3.10
2023-01-13T11:12:57.987Z,3.00
2023-01-13T11:15:43.667Z,1.87
2023-01-13T11:18:19.509Z,2.70
2023-01-13T11:20:47.826Z,2.47
2023-01-13T11:23:27.382Z,2.53
2023-01-13T11:26:03.481Z,2.47
2023-01-13T11:28:41.303Z,2.70
2023-01-13T11:31:19.554Z,3.43
2023-01-13T11:34:00.229Z,2.60
2023-01-13T11:36:34.529Z,3.03
2023-01-13T11:39:21.962Z,2.53
2023-01-13T11:42:15.033Z,2.70
2023-01-13T11:44:46.150Z,1.97
2023-01-13T11:47:14.558Z,2.40
2023-01-13T11:49:43.230Z,3.30
2023-01-13T11:52:23.251Z,3.10
2023-01-13T11:54:51.148Z,3.20
2023-01-13T11:57:55.354Z,2.97
2023-01-13T12:00:29.233Z,3.63
2023-01-13T12:03:19.287Z,2.97
2023-01-13T12:06:00.682Z,2.53
2023-01-13T12:08:49.078Z,3.57
2023-01-13T12:12:00.950Z,2.50
2023-01-13T12:14:50.932Z,2.40
2023-01-13T12:17:53.251Z,2.40
2023-01-13T12:20:41.931Z,2.57
2023-01-13T12:23:34.835Z,3.07
2023-01-13T12:26:07.643Z,2.93
2023-01-13T12:28:49.573Z,2.47
2023-01-13T12:31:20.178Z,2.70
2023-01-13T12:34:07.852Z,3.30
2023-01-13T12:36:48.643Z,3.47
2023-01-13T12:39:29.627Z,2.43
2023-01-13T12:42:35.246Z,3.00
2023-01-13T12:45:21.295Z,2.20
2023-01-13T12:47:49.955Z,2.43
2023-01-13T12:50:24.207Z,2.57
2023-01-13T12:52:56.908Z,2.13
2023-01-13T12:55:27.550Z,2.20
2023-01-13T12:58:02.140Z,2.43
2023-01-13T13:00:38.276Z,3.23
2023-01-13T13:03:10.755Z,2.80
2023-01-13T13:05:52.263Z,2.80
2023-01-13T13:08:49.448Z,2.60
2023-01-13T13:11:54.681Z,3.07
2023-01-13T13:14:42.464Z,2.30
2023-01-13T13:17:37.156Z,5.77
2023-01-13T13:20:05.770Z,2.87
2023-01-13T13:22:35.382Z,2.53
2023-01-13T13:25:07.851Z,3.20
2023-01-13T13:27:42.205Z,3.00
2023-01-13T13:30:09.520Z,2.87
2023-01-13T13:32:47.991Z,3.30
2023-01-13T13:35:18.625Z,3.20
2023-01-13T13:38:18.278Z,2.50
2023-01-13T13:41:05.688Z,2.47
2023-01-13T13:43:59.450Z,3.10
2023-01-13T13:46:48.950Z,2.00
2023-01-13T13:49:21.424Z,2.57
2023-01-13T13:52:11.787Z,3.60
2023-01-13T13:54:41.846Z,3.70
2023-01-13T13:57:39.631Z,2.97
2023-01-13T14:00:20.336Z,2.90
2023-01-13T14:02:49.818Z,3.10
2023-01-13T14:05:28.805Z,2.73
2023-01-13T14:08:08.935Z,2.87
2023-01-13T14:10:39.663Z,3.20
2023-01-13T14:13:26.110Z,2.80
2023-01-13T14:16:02.644Z,2.73
2023-01-13T14:18:32.127Z,3.20
2023-01-13T14:21:01.970Z,2.40
2023-01-13T14:23:31.226Z,3.03
2023-01-13T14:26:12.279Z,2.87
2023-01-13T14:28:41.239Z,3.67
2023-01-13T14:31:10.340Z,3.20
2023-01-13T14:33:44.816Z,3.20
2023-01-13T14:36:35.729Z,3.50
2023-01-13T14:39:09.366Z,3.30
2023-01-13T14:41:48.130Z,4.43
2023-01-13T14:44:26.876Z,3.17
2023-01-13T14:47:00.520Z,3.30
2023-01-13T14:49:43.234Z,3.33
2023-01-13T14:52:09.776Z,3.30
2023-01-13T14:54:53.030Z,3.60
2023-01-13T14:57:30.287Z,3.47
2023-01-13T15:00:04.403Z,3.07
2023-01-13T15:02:34.822Z,5.27
2023-01-13T15:05:27.505Z,3.60
2023-01-13T15:08:17.466Z,4.97
2023-01-13T15:10:53.774Z,4.07
2023-01-13T15:13:36.506Z,3.60
2023-01-13T15:16:27.687Z,3.30
2023-01-13T15:18:56.812Z,3.20
2023-01-13T15:21:23.641Z,5.03
2023-01-13T15:23:53.645Z,5.17
2023-01-13T15:26:23.030Z,4.20
2023-01-13T15:28:52.200Z,4.47
2023-01-13T15:31:20.324Z,4.70
2023-01-13T15:33:50.267Z,3.57
2023-01-13T15:36:29.021Z,4.87
2023-01-13T15:38:56.603Z,3.83
2023-01-13T15:41:43.275Z,4.40
2023-01-13T15:44:35.507Z,5.40
2023-01-13T15:47:05.095Z,5.47
2023-01-13T15:49:36.986Z,5.43
2023-01-13T15:52:25.794Z,5.23
2023-01-13T15:54:54.579Z,4.93
2023-01-13T15:57:33.821Z,5.87
2023-01-13T16:00:26.793Z,7.23
2023-01-13T16:02:53.713Z,7.87
2023-01-13T16:05:21.866Z,8.27
2023-01-13T16:07:48.477Z,5.00
2023-01-13T16:10:23.555Z,5.40
2023-01-13T16:12:51.845Z,4.60
2023-01-13T16:15:22.537Z,4.20
2023-01-13T16:17:57.661Z,4.30
2023-01-13T16:20:24.513Z,4.90
2023-01-13T16:22:53.146Z,3.57
2023-01-13T16:25:23.548Z,4.13
2023-01-13T16:27:52.383Z,4.23
2023-01-13T16:30:22.996Z,4.90
2023-01-13T16:32:49.836Z,5.03
2023-01-13T16:35:19.008Z,6.10
2023-01-13T16:37:49.581Z,8.97
2023-01-13T16:40:23.384Z,8.63
2023-01-13T16:42:50.601Z,7.57
2023-01-13T16:45:19.189Z,7.53
2023-01-13T16:47:46.792Z,6.40
2023-01-13T16:50:26.380Z,5.67
2023-01-13T16:52:54.835Z,6.33
2023-01-13T16:55:22.418Z,6.40
2023-01-13T16:57:49.246Z,6.13
2023-01-13T17:00:18.247Z,5.80
2023-01-13T17:02:45.607Z,5.70
2023-01-13T17:05:14.033Z,4.77
2023-01-13T17:07:46.161Z,6.90
2023-01-13T17:10:18.449Z,4.53
2023-01-13T17:12:45.402Z,5.37
2023-01-13T17:15:19.178Z,6.67
2023-01-13T17:17:48.803Z,6.83
2023-01-13T17:20:16.788Z,9.07
2023-01-13T17:22:45.677Z,5.40
2023-01-13T17:25:15.175Z,3.70
2023-01-13T17:27:42.563Z,2.90
2023-01-13T17:30:12.704Z,2.20
2023-01-13T17:32:41.231Z,2.80
2023-01-13T17:35:09.887Z,2.50
2023-01-13T17:37:37.064Z,3.50
2023-01-13T17:40:04.132Z,2.53
2023-01-13T17:42:32.196Z,5.23
2023-01-13T17:45:00.162Z,7.30
2023-01-13T17:47:28.405Z,7.77
2023-01-13T17:49:58.195Z,5.30
2023-01-13T17:52:25.371Z,4.20
2023-01-13T17:54:52.887Z,4.00
2023-01-13T17:57:19.621Z,3.90
2023-01-13T17:59:48.012Z,3.70
2023-01-13T18:02:15.360Z,2.60
2023-01-13T18:04:42.730Z,2.33
2023-01-13T18:07:10.245Z,2.70
2023-01-13T18:09:37.603Z,3.47
2023-01-13T18:12:04.699Z,2.07
2023-01-13T18:14:32.882Z,2.80
2023-01-13T18:17:00.214Z,2.77
2023-01-13T18:19:47.040Z,3.17
2023-01-13T18:22:33.129Z,5.40
2023-01-13T18:25:21.993Z,6.17
2023-01-13T18:27:49.688Z,4.90
2023-01-13T18:30:16.908Z,6.03
2023-01-13T18:32:43.537Z,6.57
2023-01-13T18:35:10.715Z,5.97
2023-01-13T18:37:40.083Z,5.33
2023-01-13T18:40:10.030Z,5.50
2023-01-13T18:42:56.048Z,6.17
2023-01-13T18:45:32.256Z,6.80
2023-01-13T18:48:02.626Z,5.37
2023-01-13T18:50:29.836Z,5.40
2023-01-13T18:52:58.409Z,5.17
2023-01-13T18:55:31.421Z,6.40
2023-01-13T18:57:59.850Z,7.50
2023-01-13T19:00:30.045Z,8.03
2023-01-13T19:05:34.670Z,6.30
2023-01-13T19:08:01.418Z,6.57
2023-01-13T19:10:31.889Z,7.50
2023-01-13T19:12:59.201Z,8.60
2023-01-13T19:15:26.990Z,9.33
2023-01-13T19:17:53.739Z,8.37
2023-01-13T19:20:20.264Z,10.77
2023-01-13T19:22:55.025Z,10.67
2023-01-13T19:25:21.932Z,11.10
2023-01-13T19:27:49.301Z,11.43
2023-01-13T19:30:18.835Z,9.10
2023-01-13T19:32:49.243Z,9.67
2023-01-13T19:35:19.000Z,12.90
2023-01-13T19:37:46.480Z,14.10
2023-01-13T19:40:14.600Z,15.60
2023-01-13T19:43:02.381Z,16.13
2023-01-13T19:45:35.464Z,10.13
2023-01-13T19:48:08.519Z,9.07
2023-01-13T19:50:40.475Z,8.43
2023-01-13T19:53:09.035Z,9.00
2023-01-13T19:55:36.510Z,10.00
2023-01-13T19:58:04.493Z,9.27
2023-01-13T20:00:34.850Z,8.90
2023-01-13T20:03:04.537Z,8.43
2023-01-13T20:05:32.482Z,9.37
2023-01-13T20:07:59.353Z,9.73
2023-01-13T20:10:26.890Z,9.27
2023-01-13T20:12:59.662Z,8.50
2023-01-13T20:15:28.734Z,10.43
2023-01-13T20:17:56.233Z,10.73
2023-01-13T20:20:22.869Z,8.47
2023-01-13T20:22:49.899Z,7.80
2023-01-13T20:25:21.276Z,7.33
2023-01-13T20:27:48.544Z,6.47
2023-01-13T20:30:23.542Z,7.57
2023-01-13T20:32:50.170Z,6.43
2023-01-13T20:35:19.474Z,7.00
2023-01-13T20:37:46.127Z,6.87
2023-01-13T20:40:16.436Z,6.90
2023-01-13T20:42:45.475Z,7.40
2023-01-13T20:45:26.041Z,6.20
2023-01-13T20:47:54.136Z,5.90
2023-01-13T20:50:21.212Z,6.70
2023-01-13T20:52:52.644Z,6.00
2023-01-13T20:55:21.115Z,10.40
2023-01-13T20:57:52.639Z,8.57
2023-01-13T21:00:20.308Z,7.90
2023-01-13T21:02:48.387Z,6.77
2023-01-13T21:05:16.740Z,5.40
2023-01-13T21:07:45.267Z,11.67
2023-01-13T21:10:12.061Z,13.30
2023-01-13T21:13:04.647Z,9.00
2023-01-13T21:15:31.744Z,9.73
2023-01-13T21:18:17.972Z,9.03
2023-01-13T21:20:45.098Z,8.47
2023-01-13T21:23:12.373Z,9.67
2023-01-13T21:25:40.172Z,7.50
2023-01-13T21:28:09.049Z,8.10
2023-01-13T21:30:36.441Z,8.30
2023-01-13T21:33:06.522Z,5.37
2023-01-13T21:35:33.586Z,6.10
2023-01-13T21:38:00.357Z,7.07
2023-01-13T21:40:32.114Z,7.13
2023-01-13T21:43:17.236Z,7.00
2023-01-13T21:46:05.297Z,6.33
2023-01-13T21:48:32.586Z,8.63
2023-01-13T21:51:03.701Z,6.40
2023-01-13T21:53:33.182Z,5.83
2023-01-13T21:56:03.189Z,6.33
2023-01-13T21:58:32.590Z,6.70
2023-01-13T22:01:10.438Z,5.50
2023-01-13T22:03:58.624Z,5.50
2023-01-13T22:06:26.284Z,7.47
2023-01-13T22:08:55.613Z,5.80
2023-01-13T22:11:22.355Z,5.73
2023-01-13T22:14:10.282Z,5.20
2023-01-13T22:16:43.260Z,4.33
2023-01-13T22:19:10.508Z,5.73
2023-01-13T22:21:38.033Z,4.37
2023-01-13T22:24:06.065Z,3.97
2023-01-13T22:26:34.241Z,4.70
2023-01-13T22:29:02.246Z,5.27
2023-01-13T22:31:32.029Z,6.23
2023-01-13T22:34:00.162Z,5.07
2023-01-13T22:36:29.897Z,4.90
2023-01-13T22:38:57.376Z,4.63
2023-01-13T22:41:25.397Z,4.63
2023-01-13T22:43:54.590Z,5.23
2023-01-13T22:46:23.145Z,5.60
2023-01-13T22:48:53.784Z,7.23
2023-01-13T22:51:23.439Z,5.57
2023-01-13T22:53:51.558Z,5.05
2023-01-13T22:56:20.518Z,5.00
2023-01-13T22:58:50.539Z,5.75
2023-01-13T23:01:18.603Z,4.85
2023-01-13T23:03:47.754Z,3.93
2023-01-13T23:06:16.491Z,6.00
2023-01-13T23:08:44.068Z,3.50
2023-01-13T23:11:19.774Z,3.00
2023-01-13T23:13:47.781Z,3.00
2023-01-13T23:16:17.133Z,4.10
2023-01-13T23:18:48.184Z,3.67
2023-01-13T23:21:17.532Z,3.57
2023-01-13T23:23:45.754Z,2.13
2023-01-13T23:26:14.130Z,2.43
2023-01-13T23:28:43.347Z,1.83
2023-01-13T23:31:16.123Z,1.90
2023-01-13T23:33:44.005Z,2.00
2023-01-13T23:36:22.272Z,2.17
2023-01-13T23:38:51.967Z,2.17
2023-01-13T23:41:21.603Z,2.40
2023-01-13T23:43:54.063Z,2.00
2023-01-13T23:46:22.212Z,2.43
2023-01-13T23:48:49.573Z,2.93
2023-01-13T23:51:24.907Z,2.07
2023-01-13T23:53:54.166Z,1.80
2023-01-13T23:56:23.415Z,1.83
2023-01-13T23:58:51.433Z,1.30
